sensor_id;sensor_type;location;lat;lon;timestamp;P1;durP1;ratioP1;P2;durP2;ratioP2
3789;SDS011;1910;49.042;9.028;2023-03-01T00:01:21;26.80;;;12.20;;
3789;SDS011;1910;49.042;9.028;2023-03-01T00:03:51;23.17;;;12.30;;
3789;SDS011;1910;49.042;9.028;2023-03-01T00:06:18;19.20;;;10.15;;
3789;SDS011;1910;49.042;9.028;2023-03-01T00:08:44;22.30;;;12.10;;
3789;SDS011;1910;49.042;9.028;2023-03-01T00:11:20;24.43;;;12.00;;
3789;SDS011;1910;49.042;9.028;2023-03-01T00:13:47;19.92;;;11.55;;
3789;SDS011;1910;49.042;9.028;2023-03-01T00:16:18;23.92;;;11.98;;
3789;SDS011;1910;49.042;9.028;2023-03-01T00:18:45;19.90;;;11.50;;
3789;SDS011;1910;49.042;9.028;2023-03-01T00:21:11;21.20;;;11.37;;
3789;SDS011;1910;49.042;9.028;2023-03-01T00:23:37;17.90;;;11.57;;
3789;SDS011;1910;49.042;9.028;2023-03-01T00:26:07;21.08;;;10.80;;
3789;SDS011;1910;49.042;9.028;2023-03-01T00:28:34;26.70;;;12.38;;
3789;SDS011;1910;49.042;9.028;2023-03-01T00:31:06;21.13;;;12.70;;
3789;SDS011;1910;49.042;9.028;2023-03-01T00:33:37;20.35;;;9.70;;
3789;SDS011;1910;49.042;9.028;2023-03-01T00:36:02;23.77;;;11.17;;
3789;SDS011;1910;49.042;9.028;2023-03-01T00:38:29;29.88;;;12.85;;
3789;SDS011;1910;49.042;9.028;2023-03-01T00:40:55;30.92;;;13.35;;
3789;SDS011;1910;49.042;9.028;2023-03-01T00:43:27;18.90;;;11.38;;
3789;SDS011;1910;49.042;9.028;2023-03-01T00:45:52;23.53;;;11.43;;
3789;SDS011;1910;49.042;9.028;2023-03-01T00:48:18;21.03;;;12.23;;
3789;SDS011;1910;49.042;9.028;2023-03-01T00:50:43;21.07;;;11.33;;
3789;SDS011;1910;49.042;9.028;2023-03-01T00:53:09;24.70;;;11.70;;
3789;SDS011;1910;49.042;9.028;2023-03-01T00:55:35;28.33;;;13.73;;
3789;SDS011;1910;49.042;9.028;2023-03-01T00:58:01;29.35;;;12.55;;
3789;SDS011;1910;49.042;9.028;2023-03-01T01:00:27;33.47;;;11.87;;
3789;SDS011;1910;49.042;9.028;2023-03-01T01:02:52;20.63;;;12.00;;
3789;SDS011;1910;49.042;9.028;2023-03-01T01:05:18;20.50;;;12.00;;
3789;SDS011;1910;49.042;9.028;2023-03-01T01:07:45;23.35;;;11.20;;
3789;SDS011;1910;49.042;9.028;2023-03-01T01:10:11;29.33;;;15.10;;
3789;SDS011;1910;49.042;9.028;2023-03-01T01:12:41;22.17;;;13.15;;
3789;SDS011;1910;49.042;9.028;2023-03-01T01:15:08;21.05;;;12.13;;
3789;SDS011;1910;49.042;9.028;2023-03-01T01:17:37;20.80;;;10.63;;
3789;SDS011;1910;49.042;9.028;2023-03-01T01:20:02;24.27;;;12.23;;
3789;SDS011;1910;49.042;9.028;2023-03-01T01:22:28;24.83;;;11.67;;
3789;SDS011;1910;49.042;9.028;2023-03-01T01:24:54;19.70;;;10.83;;
3789;SDS011;1910;49.042;9.028;2023-03-01T01:27:19;30.60;;;12.60;;
3789;SDS011;1910;49.042;9.028;2023-03-01T01:29:45;20.27;;;11.00;;
3789;SDS011;1910;49.042;9.028;2023-03-01T01:32:10;19.77;;;11.10;;
3789;SDS011;1910;49.042;9.028;2023-03-01T01:34:36;26.27;;;13.90;;
3789;SDS011;1910;49.042;9.028;2023-03-01T01:37:01;27.70;;;11.70;;
3789;SDS011;1910;49.042;9.028;2023-03-01T01:39:27;29.20;;;14.07;;
3789;SDS011;1910;49.042;9.028;2023-03-01T01:41:53;19.70;;;11.30;;
3789;SDS011;1910;49.042;9.028;2023-03-01T01:44:20;25.65;;;12.57;;
3789;SDS011;1910;49.042;9.028;2023-03-01T01:49:40;20.35;;;11.98;;
3789;SDS011;1910;49.042;9.028;2023-03-01T01:54:43;20.83;;;11.32;;
3789;SDS011;1910;49.042;9.028;2023-03-01T01:57:14;31.80;;;13.90;;
3789;SDS011;1910;49.042;9.028;2023-03-01T01:59:52;25.75;;;12.80;;
3789;SDS011;1910;49.042;9.028;2023-03-01T02:02:20;25.73;;;12.10;;
3789;SDS011;1910;49.042;9.028;2023-03-01T02:04:47;29.10;;;14.23;;
3789;SDS011;1910;49.042;9.028;2023-03-01T02:07:19;25.90;;;13.10;;
3789;SDS011;1910;49.042;9.028;2023-03-01T02:09:48;27.30;;;12.90;;
3789;SDS011;1910;49.042;9.028;2023-03-01T02:12:16;25.88;;;12.38;;
3789;SDS011;1910;49.042;9.028;2023-03-01T02:14:44;22.23;;;12.75;;
3789;SDS011;1910;49.042;9.028;2023-03-01T02:17:10;21.00;;;12.40;;
3789;SDS011;1910;49.042;9.028;2023-03-01T02:22:18;27.80;;;13.70;;
3789;SDS011;1910;49.042;9.028;2023-03-01T02:24:51;28.15;;;13.93;;
3789;SDS011;1910;49.042;9.028;2023-03-01T02:27:23;29.67;;;12.93;;
3789;SDS011;1910;49.042;9.028;2023-03-01T02:29:55;29.17;;;11.77;;
3789;SDS011;1910;49.042;9.028;2023-03-01T02:32:20;21.23;;;12.40;;
3789;SDS011;1910;49.042;9.028;2023-03-01T02:34:51;25.95;;;12.45;;
3789;SDS011;1910;49.042;9.028;2023-03-01T02:37:18;28.13;;;13.10;;
3789;SDS011;1910;49.042;9.028;2023-03-01T02:39:51;33.65;;;13.57;;
3789;SDS011;1910;49.042;9.028;2023-03-01T02:42:23;22.88;;;12.23;;
3789;SDS011;1910;49.042;9.028;2023-03-01T02:44:53;23.80;;;11.60;;
3789;SDS011;1910;49.042;9.028;2023-03-01T02:47:19;28.13;;;12.20;;
3789;SDS011;1910;49.042;9.028;2023-03-01T02:49:44;21.80;;;12.97;;
3789;SDS011;1910;49.042;9.028;2023-03-01T02:54:49;24.88;;;13.00;;
3789;SDS011;1910;49.042;9.028;2023-03-01T02:57:22;26.27;;;15.30;;
3789;SDS011;1910;49.042;9.028;2023-03-01T02:59:49;25.05;;;11.60;;
3789;SDS011;1910;49.042;9.028;2023-03-01T03:04:45;29.52;;;12.65;;
3789;SDS011;1910;49.042;9.028;2023-03-01T03:07:11;26.42;;;13.32;;
3789;SDS011;1910;49.042;9.028;2023-03-01T03:09:37;25.33;;;12.57;;
3789;SDS011;1910;49.042;9.028;2023-03-01T03:12:02;32.30;;;15.40;;
3789;SDS011;1910;49.042;9.028;2023-03-01T03:14:28;32.30;;;13.90;;
3789;SDS011;1910;49.042;9.028;2023-03-01T03:16:54;30.90;;;13.90;;
3789;SDS011;1910;49.042;9.028;2023-03-01T03:19:19;25.53;;;13.77;;
3789;SDS011;1910;49.042;9.028;2023-03-01T03:21:45;28.95;;;14.02;;
3789;SDS011;1910;49.042;9.028;2023-03-01T03:24:11;26.07;;;13.50;;
3789;SDS011;1910;49.042;9.028;2023-03-01T03:26:37;30.70;;;14.67;;
3789;SDS011;1910;49.042;9.028;2023-03-01T03:29:02;22.10;;;12.60;;
3789;SDS011;1910;49.042;9.028;2023-03-01T03:31:28;26.10;;;11.83;;
3789;SDS011;1910;49.042;9.028;2023-03-01T03:33:54;24.13;;;13.13;;
3789;SDS011;1910;49.042;9.028;2023-03-01T03:36:21;36.70;;;14.70;;
3789;SDS011;1910;49.042;9.028;2023-03-01T03:38:48;23.48;;;12.07;;
3789;SDS011;1910;49.042;9.028;2023-03-01T03:41:14;27.90;;;12.87;;
3789;SDS011;1910;49.042;9.028;2023-03-01T03:43:40;23.60;;;12.75;;
3789;SDS011;1910;49.042;9.028;2023-03-01T03:46:08;22.38;;;12.20;;
3789;SDS011;1910;49.042;9.028;2023-03-01T03:48:39;26.13;;;12.23;;
3789;SDS011;1910;49.042;9.028;2023-03-01T03:51:07;28.95;;;13.75;;
3789;SDS011;1910;49.042;9.028;2023-03-01T03:53:35;24.20;;;12.55;;
3789;SDS011;1910;49.042;9.028;2023-03-01T03:56:00;29.00;;;14.60;;
3789;SDS011;1910;49.042;9.028;2023-03-01T03:58:26;26.90;;;13.97;;
3789;SDS011;1910;49.042;9.028;2023-03-01T04:00:53;31.10;;;15.10;;
3789;SDS011;1910;49.042;9.028;2023-03-01T04:03:24;28.17;;;13.57;;
3789;SDS011;1910;49.042;9.028;2023-03-01T04:05:51;27.67;;;12.80;;
3789;SDS011;1910;49.042;9.028;2023-03-01T04:08:18;35.80;;;15.52;;
3789;SDS011;1910;49.042;9.028;2023-03-01T04:10:47;29.50;;;15.63;;
3789;SDS011;1910;49.042;9.028;2023-03-01T04:13:17;21.92;;;13.30;;
3789;SDS011;1910;49.042;9.028;2023-03-01T04:15:50;31.10;;;14.80;;
3789;SDS011;1910;49.042;9.028;2023-03-01T04:18:17;31.15;;;14.40;;
3789;SDS011;1910;49.042;9.028;2023-03-01T04:20:45;30.27;;;16.42;;
3789;SDS011;1910;49.042;9.028;2023-03-01T04:23:11;27.40;;;14.30;;
3789;SDS011;1910;49.042;9.028;2023-03-01T04:25:41;36.65;;;15.85;;
3789;SDS011;1910;49.042;9.028;2023-03-01T04:28:11;34.53;;;15.20;;
3789;SDS011;1910;49.042;9.028;2023-03-01T04:30:37;29.02;;;14.02;;
3789;SDS011;1910;49.042;9.028;2023-03-01T04:33:07;24.83;;;13.10;;
3789;SDS011;1910;49.042;9.028;2023-03-01T04:35:34;28.70;;;13.82;;
3789;SDS011;1910;49.042;9.028;2023-03-01T04:38:00;24.80;;;13.95;;
3789;SDS011;1910;49.042;9.028;2023-03-01T04:40:25;32.27;;;14.50;;
3789;SDS011;1910;49.042;9.028;2023-03-01T04:42:51;23.73;;;13.27;;
3789;SDS011;1910;49.042;9.028;2023-03-01T04:45:17;33.97;;;14.83;;
3789;SDS011;1910;49.042;9.028;2023-03-01T04:47:43;26.77;;;13.30;;
3789;SDS011;1910;49.042;9.028;2023-03-01T04:50:10;31.40;;;15.68;;
3789;SDS011;1910;49.042;9.028;2023-03-01T04:52:37;28.02;;;15.00;;
3789;SDS011;1910;49.042;9.028;2023-03-01T04:55:03;29.57;;;14.70;;
3789;SDS011;1910;49.042;9.028;2023-03-01T04:57:30;35.25;;;17.42;;
3789;SDS011;1910;49.042;9.028;2023-03-01T04:59:56;44.80;;;17.83;;
3789;SDS011;1910;49.042;9.028;2023-03-01T05:02:22;32.23;;;16.60;;
3789;SDS011;1910;49.042;9.028;2023-03-01T05:04:47;37.67;;;15.60;;
3789;SDS011;1910;49.042;9.028;2023-03-01T05:07:13;37.55;;;18.98;;
3789;SDS011;1910;49.042;9.028;2023-03-01T05:09:44;27.08;;;16.50;;
3789;SDS011;1910;49.042;9.028;2023-03-01T05:12:10;35.72;;;19.60;;
3789;SDS011;1910;49.042;9.028;2023-03-01T05:14:36;31.87;;;18.27;;
3789;SDS011;1910;49.042;9.028;2023-03-01T05:17:03;33.58;;;16.65;;
3789;SDS011;1910;49.042;9.028;2023-03-01T05:19:29;33.07;;;15.80;;
3789;SDS011;1910;49.042;9.028;2023-03-01T05:21:56;34.30;;;17.05;;
3789;SDS011;1910;49.042;9.028;2023-03-01T05:24:32;24.23;;;14.95;;
3789;SDS011;1910;49.042;9.028;2023-03-01T05:26:59;32.80;;;14.90;;
3789;SDS011;1910;49.042;9.028;2023-03-01T05:29:25;30.77;;;17.55;;
3789;SDS011;1910;49.042;9.028;2023-03-01T05:31:53;28.05;;;15.73;;
3789;SDS011;1910;49.042;9.028;2023-03-01T05:34:28;30.92;;;15.35;;
3789;SDS011;1910;49.042;9.028;2023-03-01T05:36:56;30.58;;;14.70;;
3789;SDS011;1910;49.042;9.028;2023-03-01T05:39:23;38.88;;;16.38;;
3789;SDS011;1910;49.042;9.028;2023-03-01T05:41:54;33.83;;;16.48;;
3789;SDS011;1910;49.042;9.028;2023-03-01T05:44:24;33.13;;;16.17;;
3789;SDS011;1910;49.042;9.028;2023-03-01T05:46:50;30.38;;;15.13;;
3789;SDS011;1910;49.042;9.028;2023-03-01T05:49:16;37.50;;;17.57;;
3789;SDS011;1910;49.042;9.028;2023-03-01T05:51:42;35.43;;;15.90;;
3789;SDS011;1910;49.042;9.028;2023-03-01T05:54:12;36.60;;;17.80;;
3789;SDS011;1910;49.042;9.028;2023-03-01T05:56:37;35.97;;;16.90;;
3789;SDS011;1910;49.042;9.028;2023-03-01T05:59:03;28.03;;;14.70;;
3789;SDS011;1910;49.042;9.028;2023-03-01T06:01:33;35.90;;;14.90;;
3789;SDS011;1910;49.042;9.028;2023-03-01T06:03:59;40.83;;;16.90;;
3789;SDS011;1910;49.042;9.028;2023-03-01T06:06:25;36.08;;;17.02;;
3789;SDS011;1910;49.042;9.028;2023-03-01T06:08:51;33.67;;;18.40;;
3789;SDS011;1910;49.042;9.028;2023-03-01T06:11:18;38.38;;;17.70;;
3789;SDS011;1910;49.042;9.028;2023-03-01T06:13:45;35.28;;;17.70;;
3789;SDS011;1910;49.042;9.028;2023-03-01T06:16:11;37.47;;;17.08;;
3789;SDS011;1910;49.042;9.028;2023-03-01T06:18:37;37.92;;;16.92;;
3789;SDS011;1910;49.042;9.028;2023-03-01T06:21:04;39.25;;;18.35;;
3789;SDS011;1910;49.042;9.028;2023-03-01T06:23:30;36.25;;;18.25;;
3789;SDS011;1910;49.042;9.028;2023-03-01T06:25:56;36.40;;;19.73;;
3789;SDS011;1910;49.042;9.028;2023-03-01T06:28:21;39.37;;;19.87;;
3789;SDS011;1910;49.042;9.028;2023-03-01T06:30:47;33.20;;;18.30;;
3789;SDS011;1910;49.042;9.028;2023-03-01T06:33:14;33.38;;;17.58;;
3789;SDS011;1910;49.042;9.028;2023-03-01T06:35:39;35.67;;;16.63;;
3789;SDS011;1910;49.042;9.028;2023-03-01T06:38:05;37.20;;;17.13;;
3789;SDS011;1910;49.042;9.028;2023-03-01T06:40:31;38.20;;;16.90;;
3789;SDS011;1910;49.042;9.028;2023-03-01T06:42:57;29.83;;;15.85;;
3789;SDS011;1910;49.042;9.028;2023-03-01T06:45:23;36.47;;;18.15;;
3789;SDS011;1910;49.042;9.028;2023-03-01T06:47:49;33.78;;;16.50;;
3789;SDS011;1910;49.042;9.028;2023-03-01T06:50:15;39.50;;;16.67;;
3789;SDS011;1910;49.042;9.028;2023-03-01T06:52:41;32.35;;;18.05;;
3789;SDS011;1910;49.042;9.028;2023-03-01T06:55:09;45.22;;;19.80;;
3789;SDS011;1910;49.042;9.028;2023-03-01T06:57:35;42.88;;;18.90;;
3789;SDS011;1910;49.042;9.028;2023-03-01T07:00:01;35.10;;;17.83;;
3789;SDS011;1910;49.042;9.028;2023-03-01T07:02:28;31.42;;;15.73;;
3789;SDS011;1910;49.042;9.028;2023-03-01T07:04:53;31.70;;;15.40;;
3789;SDS011;1910;49.042;9.028;2023-03-01T07:07:19;25.40;;;14.90;;
3789;SDS011;1910;49.042;9.028;2023-03-01T07:09:45;26.20;;;16.00;;
3789;SDS011;1910;49.042;9.028;2023-03-01T07:12:11;25.45;;;14.00;;
3789;SDS011;1910;49.042;9.028;2023-03-01T07:14:36;29.67;;;16.03;;
3789;SDS011;1910;49.042;9.028;2023-03-01T07:17:02;23.03;;;15.87;;
3789;SDS011;1910;49.042;9.028;2023-03-01T07:19:27;28.03;;;15.70;;
3789;SDS011;1910;49.042;9.028;2023-03-01T07:21:53;23.23;;;16.60;;
3789;SDS011;1910;49.042;9.028;2023-03-01T07:24:20;27.48;;;15.90;;
3789;SDS011;1910;49.042;9.028;2023-03-01T07:26:49;27.73;;;15.83;;
3789;SDS011;1910;49.042;9.028;2023-03-01T07:29:15;25.00;;;15.13;;
3789;SDS011;1910;49.042;9.028;2023-03-01T07:31:41;28.38;;;15.95;;
3789;SDS011;1910;49.042;9.028;2023-03-01T07:34:07;23.63;;;15.70;;
3789;SDS011;1910;49.042;9.028;2023-03-01T07:36:32;29.70;;;17.00;;
3789;SDS011;1910;49.042;9.028;2023-03-01T07:38:58;27.70;;;15.50;;
3789;SDS011;1910;49.042;9.028;2023-03-01T07:41:24;29.27;;;17.93;;
3789;SDS011;1910;49.042;9.028;2023-03-01T07:43:49;25.07;;;15.37;;
3789;SDS011;1910;49.042;9.028;2023-03-01T07:46:15;26.30;;;15.73;;
3789;SDS011;1910;49.042;9.028;2023-03-01T07:48:40;26.67;;;16.57;;
3789;SDS011;1910;49.042;9.028;2023-03-01T07:51:06;25.17;;;15.37;;
3789;SDS011;1910;49.042;9.028;2023-03-01T07:53:32;25.30;;;15.52;;
3789;SDS011;1910;49.042;9.028;2023-03-01T07:56:06;28.08;;;17.15;;
3789;SDS011;1910;49.042;9.028;2023-03-01T07:58:34;27.33;;;16.63;;
3789;SDS011;1910;49.042;9.028;2023-03-01T08:01:04;24.70;;;14.27;;
3789;SDS011;1910;49.042;9.028;2023-03-01T08:03:31;27.90;;;15.52;;
3789;SDS011;1910;49.042;9.028;2023-03-01T08:06:01;25.67;;;16.05;;
3789;SDS011;1910;49.042;9.028;2023-03-01T08:08:30;23.75;;;15.38;;
3789;SDS011;1910;49.042;9.028;2023-03-01T08:10:56;99.90;;;20.43;;
3789;SDS011;1910;49.042;9.028;2023-03-01T08:13:24;25.85;;;14.05;;
3789;SDS011;1910;49.042;9.028;2023-03-01T08:15:50;24.13;;;14.30;;
3789;SDS011;1910;49.042;9.028;2023-03-01T08:18:17;27.37;;;15.47;;
3789;SDS011;1910;49.042;9.028;2023-03-01T08:20:43;27.50;;;15.75;;
3789;SDS011;1910;49.042;9.028;2023-03-01T08:23:10;26.23;;;15.40;;
3789;SDS011;1910;49.042;9.028;2023-03-01T08:25:35;20.83;;;13.43;;
3789;SDS011;1910;49.042;9.028;2023-03-01T08:28:01;25.37;;;15.93;;
3789;SDS011;1910;49.042;9.028;2023-03-01T08:30:27;25.87;;;15.30;;
3789;SDS011;1910;49.042;9.028;2023-03-01T08:32:52;23.37;;;15.20;;
3789;SDS011;1910;49.042;9.028;2023-03-01T08:35:18;21.27;;;12.80;;
3789;SDS011;1910;49.042;9.028;2023-03-01T08:37:44;25.60;;;14.07;;
3789;SDS011;1910;49.042;9.028;2023-03-01T08:40:10;25.67;;;14.30;;
3789;SDS011;1910;49.042;9.028;2023-03-01T08:42:38;26.98;;;16.08;;
3789;SDS011;1910;49.042;9.028;2023-03-01T08:45:04;24.90;;;16.25;;
3789;SDS011;1910;49.042;9.028;2023-03-01T08:47:31;22.05;;;15.00;;
3789;SDS011;1910;49.042;9.028;2023-03-01T08:49:58;22.88;;;13.38;;
3789;SDS011;1910;49.042;9.028;2023-03-01T08:52:24;26.25;;;14.02;;
3789;SDS011;1910;49.042;9.028;2023-03-01T08:54:49;28.50;;;14.73;;
3789;SDS011;1910;49.042;9.028;2023-03-01T08:57:15;23.40;;;14.60;;
3789;SDS011;1910;49.042;9.028;2023-03-01T08:59:41;23.17;;;14.23;;
3789;SDS011;1910;49.042;9.028;2023-03-01T09:02:10;25.77;;;15.07;;
3789;SDS011;1910;49.042;9.028;2023-03-01T09:04:38;25.85;;;15.48;;
3789;SDS011;1910;49.042;9.028;2023-03-01T09:07:04;22.03;;;14.60;;
3789;SDS011;1910;49.042;9.028;2023-03-01T09:09:29;31.87;;;16.50;;
3789;SDS011;1910;49.042;9.028;2023-03-01T09:11:55;25.50;;;14.80;;
3789;SDS011;1910;49.042;9.028;2023-03-01T09:14:20;22.80;;;15.67;;
3789;SDS011;1910;49.042;9.028;2023-03-01T09:16:46;24.67;;;15.90;;
3789;SDS011;1910;49.042;9.028;2023-03-01T09:19:12;26.80;;;14.67;;
3789;SDS011;1910;49.042;9.028;2023-03-01T09:21:38;25.33;;;14.70;;
3789;SDS011;1910;49.042;9.028;2023-03-01T09:24:04;28.13;;;15.77;;
3789;SDS011;1910;49.042;9.028;2023-03-01T09:26:29;26.80;;;14.73;;
3789;SDS011;1910;49.042;9.028;2023-03-01T09:28:55;26.07;;;16.47;;
3789;SDS011;1910;49.042;9.028;2023-03-01T09:31:22;26.15;;;16.83;;
3789;SDS011;1910;49.042;9.028;2023-03-01T09:33:50;23.73;;;14.85;;
3789;SDS011;1910;49.042;9.028;2023-03-01T09:36:19;24.27;;;14.77;;
3789;SDS011;1910;49.042;9.028;2023-03-01T09:38:46;24.23;;;14.85;;
3789;SDS011;1910;49.042;9.028;2023-03-01T09:47:22;28.35;;;14.88;;
3789;SDS011;1910;49.042;9.028;2023-03-01T09:52:43;26.45;;;13.70;;
3789;SDS011;1910;49.042;9.028;2023-03-01T09:55:16;23.35;;;15.05;;
3789;SDS011;1910;49.042;9.028;2023-03-01T10:00:29;32.42;;;14.35;;
3789;SDS011;1910;49.042;9.028;2023-03-01T10:03:01;26.33;;;15.65;;
3789;SDS011;1910;49.042;9.028;2023-03-01T10:05:43;25.83;;;15.40;;
3789;SDS011;1910;49.042;9.028;2023-03-01T10:08:19;33.85;;;15.60;;
3789;SDS011;1910;49.042;9.028;2023-03-01T10:10:51;29.13;;;15.50;;
3789;SDS011;1910;49.042;9.028;2023-03-01T10:16:19;30.35;;;16.08;;
3789;SDS011;1910;49.042;9.028;2023-03-01T10:18:52;24.85;;;14.90;;
3789;SDS011;1910;49.042;9.028;2023-03-01T10:21:23;33.80;;;16.65;;
3789;SDS011;1910;49.042;9.028;2023-03-01T10:23:51;30.87;;;15.50;;
3789;SDS011;1910;49.042;9.028;2023-03-01T10:26:38;33.97;;;16.85;;
3789;SDS011;1910;49.042;9.028;2023-03-01T10:29:34;30.73;;;14.43;;
3789;SDS011;1910;49.042;9.028;2023-03-01T10:32:06;30.80;;;15.18;;
3789;SDS011;1910;49.042;9.028;2023-03-01T10:34:35;30.85;;;17.55;;
3789;SDS011;1910;49.042;9.028;2023-03-01T10:37:15;38.83;;;17.27;;
3789;SDS011;1910;49.042;9.028;2023-03-01T10:39:57;30.13;;;16.15;;
3789;SDS011;1910;49.042;9.028;2023-03-01T10:42:38;25.33;;;15.55;;
3789;SDS011;1910;49.042;9.028;2023-03-01T10:45:29;34.92;;;17.77;;
3789;SDS011;1910;49.042;9.028;2023-03-01T10:48:15;26.33;;;15.68;;
3789;SDS011;1910;49.042;9.028;2023-03-01T10:50:44;34.33;;;16.95;;
3789;SDS011;1910;49.042;9.028;2023-03-01T10:53:19;35.92;;;17.17;;
3789;SDS011;1910;49.042;9.028;2023-03-01T10:56:01;27.42;;;14.63;;
3789;SDS011;1910;49.042;9.028;2023-03-01T10:58:29;30.02;;;16.00;;
3789;SDS011;1910;49.042;9.028;2023-03-01T11:00:56;30.90;;;16.48;;
3789;SDS011;1910;49.042;9.028;2023-03-01T11:03:25;43.10;;;21.40;;
3789;SDS011;1910;49.042;9.028;2023-03-01T11:05:56;37.90;;;19.52;;
3789;SDS011;1910;49.042;9.028;2023-03-01T11:08:35;30.67;;;15.57;;
3789;SDS011;1910;49.042;9.028;2023-03-01T11:13:54;22.95;;;13.80;;
3789;SDS011;1910;49.042;9.028;2023-03-01T11:16:33;33.33;;;17.20;;
3789;SDS011;1910;49.042;9.028;2023-03-01T11:19:12;41.17;;;15.85;;
3789;SDS011;1910;49.042;9.028;2023-03-01T11:21:50;30.38;;;15.98;;
3789;SDS011;1910;49.042;9.028;2023-03-01T11:24:47;21.85;;;13.95;;
3789;SDS011;1910;49.042;9.028;2023-03-01T11:27:17;32.00;;;14.80;;
3789;SDS011;1910;49.042;9.028;2023-03-01T11:30:02;25.48;;;14.82;;
3789;SDS011;1910;49.042;9.028;2023-03-01T11:35:30;26.85;;;16.40;;
3789;SDS011;1910;49.042;9.028;2023-03-01T11:37:59;27.13;;;15.60;;
3789;SDS011;1910;49.042;9.028;2023-03-01T11:40:42;29.45;;;15.70;;
3789;SDS011;1910;49.042;9.028;2023-03-01T11:43:19;25.80;;;14.20;;
3789;SDS011;1910;49.042;9.028;2023-03-01T11:45:59;25.48;;;15.18;;
3789;SDS011;1910;49.042;9.028;2023-03-01T11:48:53;29.23;;;15.07;;
3789;SDS011;1910;49.042;9.028;2023-03-01T12:00:30;26.65;;;16.17;;
3789;SDS011;1910;49.042;9.028;2023-03-01T12:06:06;29.92;;;18.70;;
3789;SDS011;1910;49.042;9.028;2023-03-01T12:08:54;25.05;;;14.07;;
3789;SDS011;1910;49.042;9.028;2023-03-01T12:17:10;28.88;;;15.75;;
3789;SDS011;1910;49.042;9.028;2023-03-01T12:20:07;31.63;;;16.33;;
3789;SDS011;1910;49.042;9.028;2023-03-01T12:26:23;24.42;;;16.58;;
3789;SDS011;1910;49.042;9.028;2023-03-01T12:29:00;25.02;;;13.80;;
3789;SDS011;1910;49.042;9.028;2023-03-01T12:34:36;30.02;;;15.02;;
3789;SDS011;1910;49.042;9.028;2023-03-01T12:51:08;28.95;;;15.43;;
3789;SDS011;1910;49.042;9.028;2023-03-01T12:56:20;26.92;;;14.40;;
3789;SDS011;1910;49.042;9.028;2023-03-01T13:01:49;23.33;;;14.10;;
3789;SDS011;1910;49.042;9.028;2023-03-01T13:07:11;32.63;;;15.57;;
3789;SDS011;1910;49.042;9.028;2023-03-01T13:17:47;26.65;;;15.00;;
3789;SDS011;1910;49.042;9.028;2023-03-01T13:20:15;32.83;;;15.80;;
3789;SDS011;1910;49.042;9.028;2023-03-01T13:22:43;34.42;;;15.90;;
3789;SDS011;1910;49.042;9.028;2023-03-01T13:25:19;34.97;;;14.68;;
3789;SDS011;1910;49.042;9.028;2023-03-01T13:27:46;34.13;;;16.58;;
3789;SDS011;1910;49.042;9.028;2023-03-01T13:35:56;23.40;;;14.15;;
3789;SDS011;1910;49.042;9.028;2023-03-01T13:41:14;26.33;;;14.45;;
3789;SDS011;1910;49.042;9.028;2023-03-01T13:43:42;23.25;;;16.08;;
3789;SDS011;1910;49.042;9.028;2023-03-01T13:46:12;27.77;;;13.38;;
3789;SDS011;1910;49.042;9.028;2023-03-01T13:48:43;27.50;;;14.60;;
3789;SDS011;1910;49.042;9.028;2023-03-01T13:51:12;25.95;;;14.20;;
3789;SDS011;1910;49.042;9.028;2023-03-01T13:53:43;26.93;;;15.07;;
3789;SDS011;1910;49.042;9.028;2023-03-01T14:01:43;28.80;;;16.25;;
3789;SDS011;1910;49.042;9.028;2023-03-01T14:04:22;21.67;;;13.80;;
3789;SDS011;1910;49.042;9.028;2023-03-01T14:09:58;31.48;;;16.48;;
3789;SDS011;1910;49.042;9.028;2023-03-01T14:15:34;26.05;;;14.95;;
3789;SDS011;1910;49.042;9.028;2023-03-01T14:18:12;26.17;;;14.75;;
3789;SDS011;1910;49.042;9.028;2023-03-01T14:20:45;24.05;;;14.35;;
3789;SDS011;1910;49.042;9.028;2023-03-01T14:23:17;28.92;;;16.45;;
3789;SDS011;1910;49.042;9.028;2023-03-01T14:25:51;28.00;;;14.82;;
3789;SDS011;1910;49.042;9.028;2023-03-01T14:28:19;26.13;;;15.77;;
3789;SDS011;1910;49.042;9.028;2023-03-01T14:30:52;33.22;;;17.38;;
3789;SDS011;1910;49.042;9.028;2023-03-01T14:35:55;27.52;;;15.68;;
3789;SDS011;1910;49.042;9.028;2023-03-01T14:41:04;28.00;;;15.00;;
3789;SDS011;1910;49.042;9.028;2023-03-01T14:43:35;26.13;;;14.18;;
3789;SDS011;1910;49.042;9.028;2023-03-01T14:46:04;31.90;;;16.55;;
3789;SDS011;1910;49.042;9.028;2023-03-01T14:48:30;23.37;;;13.73;;
3789;SDS011;1910;49.042;9.028;2023-03-01T14:50:56;30.80;;;14.77;;
3789;SDS011;1910;49.042;9.028;2023-03-01T14:53:26;28.97;;;15.70;;
3789;SDS011;1910;49.042;9.028;2023-03-01T14:55:56;23.92;;;15.60;;
3789;SDS011;1910;49.042;9.028;2023-03-01T14:58:29;27.98;;;15.13;;
3789;SDS011;1910;49.042;9.028;2023-03-01T15:00:58;31.38;;;15.13;;
3789;SDS011;1910;49.042;9.028;2023-03-01T15:03:33;23.23;;;14.07;;
3789;SDS011;1910;49.042;9.028;2023-03-01T15:06:02;33.40;;;15.10;;
3789;SDS011;1910;49.042;9.028;2023-03-01T15:08:29;25.45;;;14.63;;
3789;SDS011;1910;49.042;9.028;2023-03-01T15:13:41;26.00;;;13.38;;
3789;SDS011;1910;49.042;9.028;2023-03-01T15:16:13;22.63;;;14.83;;
3789;SDS011;1910;49.042;9.028;2023-03-01T15:18:54;26.38;;;14.68;;
3789;SDS011;1910;49.042;9.028;2023-03-01T15:21:26;26.70;;;14.80;;
3789;SDS011;1910;49.042;9.028;2023-03-01T15:26:44;26.63;;;14.90;;
3789;SDS011;1910;49.042;9.028;2023-03-01T15:29:19;24.67;;;13.27;;
3789;SDS011;1910;49.042;9.028;2023-03-01T15:31:54;27.25;;;13.30;;
3789;SDS011;1910;49.042;9.028;2023-03-01T15:34:25;28.63;;;14.93;;
3789;SDS011;1910;49.042;9.028;2023-03-01T15:36:57;22.92;;;12.80;;
3789;SDS011;1910;49.042;9.028;2023-03-01T15:41:55;27.83;;;15.65;;
3789;SDS011;1910;49.042;9.028;2023-03-01T15:44:27;29.60;;;16.43;;
3789;SDS011;1910;49.042;9.028;2023-03-01T15:46:55;28.75;;;15.60;;
3789;SDS011;1910;49.042;9.028;2023-03-01T15:49:38;28.50;;;13.87;;
3789;SDS011;1910;49.042;9.028;2023-03-01T15:52:19;24.58;;;13.40;;
3789;SDS011;1910;49.042;9.028;2023-03-01T15:54:54;33.42;;;16.27;;
3789;SDS011;1910;49.042;9.028;2023-03-01T15:57:25;21.52;;;13.13;;
3789;SDS011;1910;49.042;9.028;2023-03-01T15:59:50;25.63;;;15.63;;
3789;SDS011;1910;49.042;9.028;2023-03-01T16:02:15;28.43;;;13.40;;
3789;SDS011;1910;49.042;9.028;2023-03-01T16:04:41;26.93;;;15.00;;
3789;SDS011;1910;49.042;9.028;2023-03-01T16:07:08;29.33;;;14.40;;
3789;SDS011;1910;49.042;9.028;2023-03-01T16:09:34;27.23;;;13.55;;
3789;SDS011;1910;49.042;9.028;2023-03-01T16:12:00;27.77;;;13.57;;
3789;SDS011;1910;49.042;9.028;2023-03-01T16:14:26;28.67;;;14.40;;
3789;SDS011;1910;49.042;9.028;2023-03-01T16:16:52;28.70;;;15.07;;
3789;SDS011;1910;49.042;9.028;2023-03-01T16:19:18;23.40;;;13.57;;
3789;SDS011;1910;49.042;9.028;2023-03-01T16:21:43;27.63;;;14.20;;
3789;SDS011;1910;49.042;9.028;2023-03-01T16:24:11;25.83;;;14.95;;
3789;SDS011;1910;49.042;9.028;2023-03-01T16:26:37;30.77;;;15.68;;
3789;SDS011;1910;49.042;9.028;2023-03-01T16:29:03;27.10;;;13.93;;
3789;SDS011;1910;49.042;9.028;2023-03-01T16:31:29;30.75;;;14.50;;
3789;SDS011;1910;49.042;9.028;2023-03-01T16:33:56;31.42;;;16.27;;
3789;SDS011;1910;49.042;9.028;2023-03-01T16:36:23;24.85;;;13.13;;
3789;SDS011;1910;49.042;9.028;2023-03-01T16:38:51;27.00;;;15.05;;
3789;SDS011;1910;49.042;9.028;2023-03-01T16:41:17;27.20;;;14.15;;
3789;SDS011;1910;49.042;9.028;2023-03-01T16:43:45;28.75;;;13.48;;
3789;SDS011;1910;49.042;9.028;2023-03-01T16:48:53;23.88;;;13.50;;
3789;SDS011;1910;49.042;9.028;2023-03-01T16:51:19;26.30;;;13.25;;
3789;SDS011;1910;49.042;9.028;2023-03-01T16:53:46;23.00;;;13.70;;
3789;SDS011;1910;49.042;9.028;2023-03-01T16:56:12;26.70;;;14.60;;
3789;SDS011;1910;49.042;9.028;2023-03-01T16:58:51;20.95;;;13.27;;
3789;SDS011;1910;49.042;9.028;2023-03-01T17:01:18;28.77;;;14.53;;
3789;SDS011;1910;49.042;9.028;2023-03-01T17:03:45;23.60;;;14.45;;